sensor_id;sensor_type;location;lat;lon;timestamp;pressure;altitude;pressure_sealevel;temperature;humidity
21902;BME280;11115;46.038;14.612;2023-05-15T00:02:15;97813.78;;;10.86;100.00
21902;BME280;11115;46.038;14.612;2023-05-15T00:04:57;97821.28;;;10.85;100.00
21902;BME280;11115;46.038;14.612;2023-05-15T00:07:28;97811.16;;;10.89;100.00
21902;BME280;11115;46.038;14.612;2023-05-15T00:09:57;97823.22;;;10.93;100.00
21902;BME280;11115;46.038;14.612;2023-05-15T00:12:27;97817.19;;;10.91;100.00
21902;BME280;11115;46.038;14.612;2023-05-15T00:15:07;97812.97;;;10.85;100.00
21902;BME280;11115;46.038;14.612;2023-05-15T00:17:40;97811.16;;;10.89;100.00
21902;BME280;11115;46.038;14.612;2023-05-15T00:20:13;97815.22;;;10.92;100.00
21902;BME280;11115;46.038;14.612;2023-05-15T00:22:43;97811.81;;;11.04;100.00
21902;BME280;11115;46.038;14.612;2023-05-15T00:25:26;97814.25;;;11.05;100.00
21902;BME280;11115;46.038;14.612;2023-05-15T00:27:58;97807.25;;;10.90;100.00
21902;BME280;11115;46.038;14.612;2023-05-15T00:30:38;97792.28;;;10.91;100.00
21902;BME280;11115;46.038;14.612;2023-05-15T00:33:10;97801.88;;;10.94;100.00
21902;BME280;11115;46.038;14.612;2023-05-15T00:35:57;97798.63;;;10.92;100.00
21902;BME280;11115;46.038;14.612;2023-05-15T00:38:36;97801.41;;;10.92;100.00
21902;BME280;11115;46.038;14.612;2023-05-15T00:41:06;97800.25;;;10.93;100.00
21902;BME280;11115;46.038;14.612;2023-05-15T00:43:41;97799.91;;;10.94;100.00
21902;BME280;11115;46.038;14.612;2023-05-15T00:46:16;97798.16;;;10.90;100.00
21902;BME280;11115;46.038;14.612;2023-05-15T00:48:49;97797.31;;;10.98;100.00
21902;BME280;11115;46.038;14.612;2023-05-15T00:51:26;97718.47;;;10.49;100.00
21902;BME280;11115;46.038;14.612;2023-05-15T00:54:01;97812.81;;;10.99;100.00
21902;BME280;11115;46.038;14.612;2023-05-15T00:56:34;97800.75;;;10.95;100.00
21902;BME280;11115;46.038;14.612;2023-05-15T00:59:05;97802.22;;;10.92;100.00
21902;BME280;11115;46.038;14.612;2023-05-15T01:01:40;97803.16;;;10.97;100.00
21902;BME280;11115;46.038;14.612;2023-05-15T01:04:10;97803.19;;;10.88;100.00
21902;BME280;11115;46.038;14.612;2023-05-15T01:06:42;97807.09;;;10.95;100.00
21902;BME280;11115;46.038;14.612;2023-05-15T01:09:23;97776.53;;;10.83;100.00
21902;BME280;11115;46.038;14.612;2023-05-15T01:11:56;97788.88;;;10.86;100.00
21902;BME280;11115;46.038;14.612;2023-05-15T01:14:31;97778.97;;;10.85;100.00
21902;BME280;11115;46.038;14.612;2023-05-15T01:17:06;97789.38;;;10.88;100.00
21902;BME280;11115;46.038;14.612;2023-05-15T01:19:35;97781.06;;;10.79;100.00
21902;BME280;11115;46.038;14.612;2023-05-15T01:22:32;97782.38;;;10.73;100.00
21902;BME280;11115;46.038;14.612;2023-05-15T01:25:45;97785.63;;;10.75;100.00
21902;BME280;11115;46.038;14.612;2023-05-15T01:31:37;97786.63;;;10.62;100.00
21902;BME280;11115;46.038;14.612;2023-05-15T01:34:09;97783.69;;;10.67;100.00
21902;BME280;11115;46.038;14.612;2023-05-15T01:37:00;97781.41;;;10.69;100.00
21902;BME280;11115;46.038;14.612;2023-05-15T01:39:41;97781.72;;;10.76;100.00
21902;BME280;11115;46.038;14.612;2023-05-15T01:42:18;97776.19;;;10.76;100.00
21902;BME280;11115;46.038;14.612;2023-05-15T01:44:53;97777.19;;;10.80;100.00
21902;BME280;11115;46.038;14.612;2023-05-15T01:47:39;97784.34;;;10.81;100.00
21902;BME280;11115;46.038;14.612;2023-05-15T01:50:16;97771.31;;;10.73;100.00
21902;BME280;11115;46.038;14.612;2023-05-15T01:52:56;97777.31;;;10.75;100.00
21902;BME280;11115;46.038;14.612;2023-05-15T01:55:29;97786.13;;;10.86;100.00
21902;BME280;11115;46.038;14.612;2023-05-15T01:58:01;97793.91;;;10.92;100.00
21902;BME280;11115;46.038;14.612;2023-05-15T02:00:32;97780.91;;;10.84;100.00
21902;BME280;11115;46.038;14.612;2023-05-15T02:03:05;97783.81;;;10.88;100.00
21902;BME280;11115;46.038;14.612;2023-05-15T02:05:52;97781.06;;;10.79;100.00
21902;BME280;11115;46.038;14.612;2023-05-15T02:08:26;97789.88;;;10.81;100.00
21902;BME280;11115;46.038;14.612;2023-05-15T02:11:02;97788.06;;;10.85;100.00
21902;BME280;11115;46.038;14.612;2023-05-15T02:13:35;97767.41;;;10.74;100.00
21902;BME280;11115;46.038;14.612;2023-05-15T02:16:06;97784.00;;;10.83;100.00
21902;BME280;11115;46.038;14.612;2023-05-15T02:18:38;97789.88;;;10.81;100.00
21902;BME280;11115;46.038;14.612;2023-05-15T02:21:09;97788.25;;;10.80;100.00
21902;BME280;11115;46.038;14.612;2023-05-15T02:23:42;97785.78;;;10.79;100.00
21902;BME280;11115;46.038;14.612;2023-05-15T02:33:00;97795.41;;;10.81;100.00
21902;BME280;11115;46.038;14.612;2023-05-15T02:36:27;97789.06;;;10.81;100.00
21902;BME280;11115;46.038;14.612;2023-05-15T02:39:10;97790.34;;;10.83;100.00
21902;BME280;11115;46.038;14.612;2023-05-15T02:41:45;97792.31;;;10.83;100.00
21902;BME280;11115;46.038;14.612;2023-05-15T02:44:29;97793.28;;;10.87;100.00
21902;BME280;11115;46.038;14.612;2023-05-15T02:46:59;97787.59;;;10.83;100.00
21902;BME280;11115;46.038;14.612;2023-05-15T02:49:43;97785.94;;;10.74;100.00
21902;BME280;11115;46.038;14.612;2023-05-15T02:52:22;97783.66;;;10.76;100.00
21902;BME280;11115;46.038;14.612;2023-05-15T02:54:54;97782.38;;;10.73;100.00
21902;BME280;11115;46.038;14.612;2023-05-15T02:57:27;97777.97;;;10.72;100.00
21902;BME280;11115;46.038;14.612;2023-05-15T03:00:09;97788.38;;;10.75;100.00
21902;BME280;11115;46.038;14.612;2023-05-15T03:02:42;97789.69;;;10.78;100.00
21902;BME280;11115;46.038;14.612;2023-05-15T03:05:13;97785.47;;;10.80;100.00
21902;BME280;11115;46.038;14.612;2023-05-15T03:07:46;97776.50;;;10.75;100.00
21902;BME280;11115;46.038;14.612;2023-05-15T03:10:31;97770.84;;;10.62;100.00
21902;BME280;11115;46.038;14.612;2023-05-15T03:13:05;97761.41;;;10.55;100.00
21902;BME280;11115;46.038;14.612;2023-05-15T03:15:48;97780.59;;;10.69;100.00
21902;BME280;11115;46.038;14.612;2023-05-15T03:18:22;97782.69;;;10.72;100.00
21902;BME280;11115;46.038;14.612;2023-05-15T03:20:52;97781.59;;;10.64;100.00
21902;BME280;11115;46.038;14.612;2023-05-15T03:23:29;97779.16;;;10.62;100.00
21902;BME280;11115;46.038;14.612;2023-05-15T03:26:08;97780.78;;;10.63;100.00
21902;BME280;11115;46.038;14.612;2023-05-15T03:28:40;97767.25;;;10.53;100.00
21902;BME280;11115;46.038;14.612;2023-05-15T03:31:17;97772.28;;;10.60;100.00
21902;BME280;11115;46.038;14.612;2023-05-15T03:33:56;97760.41;;;10.59;100.00
21902;BME280;11115;46.038;14.612;2023-05-15T03:36:27;97773.28;;;10.64;100.00
21902;BME280;11115;46.038;14.612;2023-05-15T03:39:11;97771.00;;;10.66;100.00
21902;BME280;11115;46.038;14.612;2023-05-15T03:41:42;97768.09;;;10.62;100.00
21902;BME280;11115;46.038;14.612;2023-05-15T03:44:16;97771.66;;;10.63;100.00
21902;BME280;11115;46.038;14.612;2023-05-15T03:47:00;97761.41;;;10.63;100.00
21902;BME280;11115;46.038;14.612;2023-05-15T03:49:33;97765.47;;;10.66;100.00
21902;BME280;11115;46.038;14.612;2023-05-15T03:52:07;97746.75;;;10.54;100.00
21902;BME280;11115;46.038;14.612;2023-05-15T03:54:46;97758.47;;;10.60;100.00
21902;BME280;11115;46.038;14.612;2023-05-15T03:57:17;97761.41;;;10.63;100.00
21902;BME280;11115;46.038;14.612;2023-05-15T03:59:51;97757.66;;;10.59;100.00
21902;BME280;11115;46.038;14.612;2023-05-15T04:02:22;97761.41;;;10.55;100.00
21902;BME280;11115;46.038;14.612;2023-05-15T04:04:53;97764.00;;;10.60;100.00
21902;BME280;11115;46.038;14.612;2023-05-15T04:07:33;97769.03;;;10.58;100.00
21902;BME280;11115;46.038;14.612;2023-05-15T04:10:08;97769.22;;;10.53;100.00
21902;BME280;11115;46.038;14.612;2023-05-15T04:12:42;97766.78;;;10.51;100.00
21902;BME280;11115;46.038;14.612;2023-05-15T04:15:23;97771.19;;;10.61;100.00
21902;BME280;11115;46.038;14.612;2023-05-15T04:17:58;97770.66;;;10.59;100.00
21902;BME280;11115;46.038;14.612;2023-05-15T04:20:35;97765.47;;;10.66;100.00
21902;BME280;11115;46.038;14.612;2023-05-15T04:23:12;97745.63;;;10.47;100.00
21902;BME280;11115;46.038;14.612;2023-05-15T04:25:46;97770.84;;;10.62;100.00
21902;BME280;11115;46.038;14.612;2023-05-15T04:28:19;97763.03;;;10.64;100.00
21902;BME280;11115;46.038;14.612;2023-05-15T04:30:57;97768.56;;;10.64;100.00
21902;BME280;11115;46.038;14.612;2023-05-15T04:33:31;97748.25;;;10.60;100.00
21902;BME280;11115;46.038;14.612;2023-05-15T04:36:08;97770.69;;;10.68;100.00
21902;BME280;11115;46.038;14.612;2023-05-15T04:38:44;97767.91;;;10.59;100.00
21902;BME280;11115;46.038;14.612;2023-05-15T04:41:25;97778.81;;;10.64;100.00
21902;BME280;11115;46.038;14.612;2023-05-15T04:43:56;97780.56;;;10.77;100.00
21902;BME280;11115;46.038;14.612;2023-05-15T04:46:41;97773.91;;;10.87;100.00
21902;BME280;11115;46.038;14.612;2023-05-15T04:49:14;97750.97;;;10.78;100.00
21902;BME280;11115;46.038;14.612;2023-05-15T04:51:48;97758.25;;;11.00;100.00
21902;BME280;11115;46.038;14.612;2023-05-15T04:54:25;97761.84;;;11.00;100.00
21902;BME280;11115;46.038;14.612;2023-05-15T04:56:59;97767.53;;;11.04;100.00
21902;BME280;11115;46.038;14.612;2023-05-15T04:59:32;97767.69;;;10.99;100.00
21902;BME280;11115;46.038;14.612;2023-05-15T05:02:03;97775.69;;;10.91;100.00
21902;BME280;11115;46.038;14.612;2023-05-15T05:04:43;97760.22;;;10.90;100.00
21902;BME280;11115;46.038;14.612;2023-05-15T05:07:24;97760.03;;;10.95;100.00
21902;BME280;11115;46.038;14.612;2023-05-15T05:10:01;97761.38;;;10.89;100.00
21902;BME280;11115;46.038;14.612;2023-05-15T05:12:30;97758.22;;;11.08;100.00
21902;BME280;11115;46.038;14.612;2023-05-15T05:15:01;97758.50;;;11.24;100.00
21902;BME280;11115;46.038;14.612;2023-05-15T05:17:35;97750.41;;;11.19;100.00
21902;BME280;11115;46.038;14.612;2023-05-15T05:20:06;97767.00;;;11.19;100.00
21902;BME280;11115;46.038;14.612;2023-05-15T05:22:40;97760.63;;;11.27;100.00
21902;BME280;11115;46.038;14.612;2023-05-15T05:25:10;97759.47;;;11.28;100.00
21902;BME280;11115;46.038;14.612;2023-05-15T05:27:55;97769.88;;;11.40;100.00
21902;BME280;11115;46.038;14.612;2023-05-15T05:30:29;97758.13;;;11.34;100.00
21902;BME280;11115;46.038;14.612;2023-05-15T05:33:01;97763.34;;;11.36;100.00
21902;BME280;11115;46.038;14.612;2023-05-15T05:35:39;97780.38;;;11.55;100.00
21902;BME280;11115;46.038;14.612;2023-05-15T05:38:10;97762.38;;;11.40;100.00
21902;BME280;11115;46.038;14.612;2023-05-15T05:40:56;97766.84;;;11.53;100.00
21902;BME280;11115;46.038;14.612;2023-05-15T05:43:30;97763.59;;;11.51;100.00
21902;BME280;11115;46.038;14.612;2023-05-15T05:46:02;97769.81;;;11.48;100.00
21902;BME280;11115;46.038;14.612;2023-05-15T05:48:34;97776.31;;;11.52;100.00
21902;BME280;11115;46.038;14.612;2023-05-15T05:51:07;97757.31;;;11.42;100.00
21902;BME280;11115;46.038;14.612;2023-05-15T05:53:37;97778.59;;;11.50;100.00
21902;BME280;11115;46.038;14.612;2023-05-15T05:56:08;97764.81;;;11.33;100.00
21902;BME280;11115;46.038;14.612;2023-05-15T05:58:39;97763.81;;;11.46;100.00
21902;BME280;11115;46.038;14.612;2023-05-15T06:01:08;97771.78;;;11.48;100.00
21902;BME280;11115;46.038;14.612;2023-05-15T06:03:45;97767.38;;;11.47;100.00
21902;BME280;11115;46.038;14.612;2023-05-15T06:06:23;97776.97;;;11.49;100.00
21902;BME280;11115;46.038;14.612;2023-05-15T06:09:21;97769.47;;;11.50;100.00
21902;BME280;11115;46.038;14.612;2023-05-15T06:11:54;97769.59;;;11.62;100.00
21902;BME280;11115;46.038;14.612;2023-05-15T06:14:28;97770.44;;;11.54;100.00
21902;BME280;11115;46.038;14.612;2023-05-15T06:17:13;97757.13;;;11.47;100.00
21902;BME280;11115;46.038;14.612;2023-05-15T06:19:47;97763.09;;;11.58;100.00
21902;BME280;11115;46.038;14.612;2023-05-15T06:22:20;97754.63;;;11.54;100.00
21902;BME280;11115;46.038;14.612;2023-05-15T06:24:52;97738.75;;;11.81;100.00
21902;BME280;11115;46.038;14.612;2023-05-15T06:27:37;97757.56;;;11.96;100.00
21902;BME280;11115;46.038;14.612;2023-05-15T06:30:08;97767.56;;;12.09;100.00
21902;BME280;11115;46.038;14.612;2023-05-15T06:32:41;97761.16;;;12.18;100.00
21902;BME280;11115;46.038;14.612;2023-05-15T06:35:15;97763.72;;;12.23;100.00
21902;BME280;11115;46.038;14.612;2023-05-15T06:37:44;97763.94;;;12.18;100.00
21902;BME280;11115;46.038;14.612;2023-05-15T06:40:27;97752.00;;;11.96;100.00
21902;BME280;11115;46.038;14.612;2023-05-15T06:43:03;97711.03;;;11.81;100.00
21902;BME280;11115;46.038;14.612;2023-05-15T06:45:38;97747.69;;;12.07;100.00
21902;BME280;11115;46.038;14.612;2023-05-15T06:48:16;97742.22;;;12.20;100.00
21902;BME280;11115;46.038;14.612;2023-05-15T06:50:48;97735.53;;;12.21;100.00
21902;BME280;11115;46.038;14.612;2023-05-15T06:53:19;97745.94;;;12.44;100.00
21902;BME280;11115;46.038;14.612;2023-05-15T06:55:52;97746.06;;;12.69;100.00
21902;BME280;11115;46.038;14.612;2023-05-15T06:58:25;97750.25;;;12.75;100.00
21902;BME280;11115;46.038;14.612;2023-05-15T07:01:02;97737.03;;;12.72;100.00
21902;BME280;11115;46.038;14.612;2023-05-15T07:03:39;97746.59;;;12.62;100.00
21902;BME280;11115;46.038;14.612;2023-05-15T07:06:11;97733.44;;;12.71;100.00
21902;BME280;11115;46.038;14.612;2023-05-15T07:08:44;97758.16;;;12.85;100.00
21902;BME280;11115;46.038;14.612;2023-05-15T07:11:27;97756.16;;;12.73;100.00
21902;BME280;11115;46.038;14.612;2023-05-15T07:14:03;97756.28;;;12.77;100.00
21902;BME280;11115;46.038;14.612;2023-05-15T07:16:31;97735.50;;;12.62;100.00
21902;BME280;11115;46.038;14.612;2023-05-15T07:19:02;97737.72;;;12.69;100.00
21902;BME280;11115;46.038;14.612;2023-05-15T07:21:37;97738.25;;;12.83;100.00
21902;BME280;11115;46.038;14.612;2023-05-15T07:24:06;97749.59;;;12.90;100.00
21902;BME280;11115;46.038;14.612;2023-05-15T07:26:40;97744.03;;;12.90;100.00
21902;BME280;11115;46.038;14.612;2023-05-15T07:29:26;97747.16;;;12.89;100.00
21902;BME280;11115;46.038;14.612;2023-05-15T07:32:05;97731.94;;;12.95;100.00
21902;BME280;11115;46.038;14.612;2023-05-15T07:34:38;97743.25;;;13.23;100.00
21902;BME280;11115;46.038;14.612;2023-05-15T07:37:09;97743.47;;;13.30;100.00
21902;BME280;11115;46.038;14.612;2023-05-15T07:39:43;97760.28;;;13.46;100.00
21902;BME280;11115;46.038;14.612;2023-05-15T07:42:25;97764.88;;;13.29;100.00
21902;BME280;11115;46.038;14.612;2023-05-15T07:45:01;97752.66;;;13.30;100.00
21902;BME280;11115;46.038;14.612;2023-05-15T07:47:30;97758.47;;;13.62;100.00
21902;BME280;11115;46.038;14.612;2023-05-15T07:50:03;97731.81;;;13.36;100.00
21902;BME280;11115;46.038;14.612;2023-05-15T07:52:37;97750.13;;;13.62;100.00
21902;BME280;11115;46.038;14.612;2023-05-15T07:55:13;97754.19;;;13.52;100.00
21902;BME280;11115;46.038;14.612;2023-05-15T07:57:41;97732.63;;;13.61;100.00
21902;BME280;11115;46.038;14.612;2023-05-15T08:00:21;97761.84;;;13.92;100.00
21902;BME280;11115;46.038;14.612;2023-05-15T08:02:51;97771.44;;;13.82;100.00
21902;BME280;11115;46.038;14.612;2023-05-15T08:05:27;97765.88;;;13.82;100.00
21902;BME280;11115;46.038;14.612;2023-05-15T08:07:59;97763.91;;;13.83;100.00
21902;BME280;11115;46.038;14.612;2023-05-15T08:10:33;97758.34;;;13.95;100.00
21902;BME280;11115;46.038;14.612;2023-05-15T08:13:04;97762.84;;;14.12;100.00
21902;BME280;11115;46.038;14.612;2023-05-15T08:15:38;97769.19;;;14.37;100.00
21902;BME280;11115;46.038;14.612;2023-05-15T08:18:14;97760.16;;;14.52;100.00
21902;BME280;11115;46.038;14.612;2023-05-15T08:20:45;97758.91;;;14.65;100.00
21902;BME280;11115;46.038;14.612;2023-05-15T08:23:16;97757.06;;;14.69;100.00
21902;BME280;11115;46.038;14.612;2023-05-15T08:25:46;97754.19;;;14.66;100.00
21902;BME280;11115;46.038;14.612;2023-05-15T08:28:18;97749.75;;;14.65;100.00
21902;BME280;11115;46.038;14.612;2023-05-15T08:30:49;97758.34;;;14.72;100.00
21902;BME280;11115;46.038;14.612;2023-05-15T08:33:23;97758.59;;;14.67;100.00
21902;BME280;11115;46.038;14.612;2023-05-15T08:35:53;97758.38;;;14.60;100.00
21902;BME280;11115;46.038;14.612;2023-05-15T08:38:31;97770.47;;;14.51;100.00
21902;BME280;11115;46.038;14.612;2023-05-15T08:41:24;97764.69;;;14.32;100.00
21902;BME280;11115;46.038;14.612;2023-05-15T08:44:13;97756.91;;;14.25;100.00
21902;BME280;11115;46.038;14.612;2023-05-15T08:46:49;97745.22;;;14.32;100.00
21902;BME280;11115;46.038;14.612;2023-05-15T08:53:11;97753.50;;;15.12;100.00
21902;BME280;11115;46.038;14.612;2023-05-15T08:55:42;97751.03;;;15.39;100.00
21902;BME280;11115;46.038;14.612;2023-05-15T08:58:10;97755.31;;;15.05;100.00
21902;BME280;11115;46.038;14.612;2023-05-15T09:00:40;97758.41;;;14.87;100.00
21902;BME280;11115;46.038;14.612;2023-05-15T09:03:15;97753.91;;;14.99;100.00
21902;BME280;11115;46.038;14.612;2023-05-15T09:05:52;97743.22;;;15.01;100.00
21902;BME280;11115;46.038;14.612;2023-05-15T09:08:31;97728.31;;;14.93;100.00
21902;BME280;11115;46.038;14.612;2023-05-15T09:11:04;97709.66;;;15.09;100.00
21902;BME280;11115;46.038;14.612;2023-05-15T09:13:37;97748.16;;;15.35;100.00
21902;BME280;11115;46.038;14.612;2023-05-15T09:16:19;97754.09;;;15.49;100.00
21902;BME280;11115;46.038;14.612;2023-05-15T09:18:54;97733.75;;;15.33;100.00
21902;BME280;11115;46.038;14.612;2023-05-15T09:21:28;97752.22;;;15.54;100.00
21902;BME280;11115;46.038;14.612;2023-05-15T09:27:00;97759.44;;;16.02;100.00
21902;BME280;11115;46.038;14.612;2023-05-15T09:29:37;97764.47;;;15.81;100.00
21902;BME280;11115;46.038;14.612;2023-05-15T09:32:13;97760.44;;;15.62;100.00
21902;BME280;11115;46.038;14.612;2023-05-15T09:34:47;97764.38;;;15.77;100.00
21902;BME280;11115;46.038;14.612;2023-05-15T09:37:29;97759.00;;;15.68;100.00
21902;BME280;11115;46.038;14.612;2023-05-15T09:40:06;97752.06;;;15.62;100.00
21902;BME280;11115;46.038;14.612;2023-05-15T09:42:50;97748.19;;;15.67;100.00
21902;BME280;11115;46.038;14.612;2023-05-15T09:45:24;97757.53;;;15.74;100.00
21902;BME280;11115;46.038;14.612;2023-05-15T09:47:59;97758.31;;;16.06;100.00
21902;BME280;11115;46.038;14.612;2023-05-15T09:50:34;97743.81;;;16.17;100.00
21902;BME280;11115;46.038;14.612;2023-05-15T09:53:10;97745.69;;;16.28;100.00
21902;BME280;11115;46.038;14.612;2023-05-15T09:55:50;97728.41;;;16.77;100.00
21902;BME280;11115;46.038;14.612;2023-05-15T09:58:18;97727.13;;;16.94;100.00
21902;BME280;11115;46.038;14.612;2023-05-15T10:00:52;97720.91;;;17.01;100.00
21902;BME280;11115;46.038;14.612;2023-05-15T10:03:42;97711.94;;;16.72;100.00
21902;BME280;11115;46.038;14.612;2023-05-15T10:06:17;97692.59;;;16.63;100.00
21902;BME280;11115;46.038;14.612;2023-05-15T10:08:54;97679.38;;;17.22;100.00
21902;BME280;11115;46.038;14.612;2023-05-15T10:11:26;97657.81;;;16.99;100.00
21902;BME280;11115;46.038;14.612;2023-05-15T10:14:10;97654.66;;;17.01;100.00
21902;BME280;11115;46.038;14.612;2023-05-15T10:16:43;97653.88;;;17.50;100.00
21902;BME280;11115;46.038;14.612;2023-05-15T10:19:24;97660.28;;;17.50;100.00
21902;BME280;11115;46.038;14.612;2023-05-15T10:21:58;97651.16;;;17.30;100.00
21902;BME280;11115;46.038;14.612;2023-05-15T10:24:35;97651.34;;;16.95;100.00
21902;BME280;11115;46.038;14.612;2023-05-15T10:27:10;97659.75;;;16.76;100.00
21902;BME280;11115;46.038;14.612;2023-05-15T10:29:41;97674.81;;;16.91;100.00
21902;BME280;11115;46.038;14.612;2023-05-15T10:32:12;97684.59;;;17.46;100.00
21902;BME280;11115;46.038;14.612;2023-05-15T10:34:43;97684.47;;;17.16;100.00
21902;BME280;11115;46.038;14.612;2023-05-15T10:37:13;97679.06;;;17.04;100.00
21902;BME280;11115;46.038;14.612;2023-05-15T10:39:47;97693.84;;;17.50;100.00
21902;BME280;11115;46.038;14.612;2023-05-15T10:42:16;97703.91;;;17.32;100.00
21902;BME280;11115;46.038;14.612;2023-05-15T10:44:45;97703.13;;;17.12;100.00
21902;BME280;11115;46.038;14.612;2023-05-15T10:47:16;97694.00;;;16.92;100.00
21902;BME280;11115;46.038;14.612;2023-05-15T10:49:48;97686.00;;;17.14;100.00
21902;BME280;11115;46.038;14.612;2023-05-15T10:52:37;97685.81;;;17.03;100.00
21902;BME280;11115;46.038;14.612;2023-05-15T10:55:13;97633.09;;;16.79;100.00
21902;BME280;11115;46.038;14.612;2023-05-15T10:57:52;97662.13;;;17.39;100.00
21902;BME280;11115;46.038;14.612;2023-05-15T11:00:28;97669.75;;;17.92;100.00
21902;BME280;11115;46.038;14.612;2023-05-15T11:03:03;97664.34;;;18.32;100.00
21902;BME280;11115;46.038;14.612;2023-05-15T11:06:11;97663.59;;;18.35;100.00
21902;BME280;11115;46.038;14.612;2023-05-15T11:08:44;97661.44;;;18.25;100.00
21902;BME280;11115;46.038;14.612;2023-05-15T11:11:54;97649.72;;;18.46;100.00
21902;BME280;11115;46.038;14.612;2023-05-15T11:14:39;97654.16;;;18.80;100.00
21902;BME280;11115;46.038;14.612;2023-05-15T11:17:10;97648.06;;;18.71;100.00
21902;BME280;11115;46.038;14.612;2023-05-15T11:19:55;97631.31;;;19.16;100.00
21902;BME280;11115;46.038;14.612;2023-05-15T11:22:33;97628.50;;;19.60;100.00
21902;BME280;11115;46.038;14.612;2023-05-15T11:25:14;97630.31;;;19.89;100.00
21902;BME280;11115;46.038;14.612;2023-05-15T11:27:53;97623.59;;;18.68;100.00
21902;BME280;11115;46.038;14.612;2023-05-15T11:30:36;97622.13;;;18.78;100.00
21902;BME280;11115;46.038;14.612;2023-05-15T11:33:10;97624.09;;;18.77;100.00
21902;BME280;11115;46.038;14.612;2023-05-15T11:35:58;97625.59;;;19.08;100.00
21902;BME280;11115;46.038;14.612;2023-05-15T11:38:36;97625.09;;;19.40;100.00
21902;BME280;11115;46.038;14.612;2023-05-15T11:41:19;97623.22;;;20.10;100.00
21902;BME280;11115;46.038;14.612;2023-05-15T11:44:06;97588.25;;;20.00;100.00
21902;BME280;11115;46.038;14.612;2023-05-15T11:46:36;97607.16;;;20.07;100.00
21902;BME280;11115;46.038;14.612;2023-05-15T11:49:09;97608.94;;;20.43;100.00
21902;BME280;11115;46.038;14.612;2023-05-15T11:51:42;97605.38;;;19.77;100.00
21902;BME280;11115;46.038;14.612;2023-05-15T11:54:17;97607.91;;;19.96;100.00
21902;BME280;11115;46.038;14.612;2023-05-15T11:56:59;97600.88;;;19.65;100.00
21902;BME280;11115;46.038;14.612;2023-05-15T11:59:36;97596.47;;;19.64;100.00
21902;BME280;11115;46.038;14.612;2023-05-15T12:02:15;97593.97;;;20.18;100.00
21902;BME280;11115;46.038;14.612;2023-05-15T12:04:50;97570.88;;;19.73;100.00
21902;BME280;11115;46.038;14.612;2023-05-15T12:07:23;97555.25;;;19.21;100.00
21902;BME280;11115;46.038;14.612;2023-05-15T12:09:54;97584.22;;;19.35;100.00
21902;BME280;11115;46.038;14.612;2023-05-15T12:12:27;97593.03;;;19.92;100.00
21902;BME280;11115;46.038;14.612;2023-05-15T12:14:59;97586.53;;;20.61;100.00
21902;BME280;11115;46.038;14.612;2023-05-15T12:17:46;97592.03;;;19.63;100.00
21902;BME280;11115;46.038;14.612;2023-05-15T12:20:19;97583.56;;;20.22;100.00
21902;BME280;11115;46.038;14.612;2023-05-15T12:22:48;97575.69;;;20.45;100.00
21902;BME280;11115;46.038;14.612;2023-05-15T12:25:22;97591.41;;;20.75;100.00
21902;BME280;11115;46.038;14.612;2023-05-15T12:28:08;97591.41;;;20.78;100.00
21902;BME280;11115;46.038;14.612;2023-05-15T12:30:44;97593.41;;;20.71;100.00
21902;BME280;11115;46.038;14.612;2023-05-15T12:33:15;97585.31;;;20.44;100.00
21902;BME280;11115;46.038;14.612;2023-05-15T12:36:03;97584.72;;;20.07;100.00
21902;BME280;11115;46.038;14.612;2023-05-15T12:38:38;97582.81;;;20.39;100.00
21902;BME280;11115;46.038;14.612;2023-05-15T12:41:15;97575.34;;;20.75;100.00
21902;BME280;11115;46.038;14.612;2023-05-15T12:43:48;97572.88;;;20.52;100.00
21902;BME280;11115;46.038;14.612;2023-05-15T12:46:21;97575.19;;;20.36;100.00
21902;BME280;11115;46.038;14.612;2023-05-15T12:48:50;97582.41;;;20.37;100.00
21902;BME280;11115;46.038;14.612;2023-05-15T12:51:21;97575.03;;;19.97;100.00
21902;BME280;11115;46.038;14.612;2023-05-15T12:54:02;97581.72;;;19.78;100.00
21902;BME280;11115;46.038;14.612;2023-05-15T12:56:34;97579.13;;;20.14;100.00
21902;BME280;11115;46.038;14.612;2023-05-15T12:59:07;97587.75;;;19.80;100.00
21902;BME280;11115;46.038;14.612;2023-05-15T13:01:40;97589.63;;;19.62;100.00
21902;BME280;11115;46.038;14.612;2023-05-15T13:04:23;97600.75;;;19.48;100.00
21902;BME280;11115;46.038;14.612;2023-05-15T13:06:57;97612.16;;;18.84;100.00
21902;BME280;11115;46.038;14.612;2023-05-15T13:09:30;97610.16;;;18.17;100.00
21902;BME280;11115;46.038;14.612;2023-05-15T13:12:06;97605.19;;;18.04;100.00
21902;BME280;11115;46.038;14.612;2023-05-15T13:14:42;97619.47;;;17.95;100.00
21902;BME280;11115;46.038;14.612;2023-05-15T13:17:13;97608.03;;;17.77;100.00
21902;BME280;11115;46.038;14.612;2023-05-15T13:19:58;97601.78;;;17.38;100.00
21902;BME280;11115;46.038;14.612;2023-05-15T13:22:37;97604.50;;;17.35;100.00
21902;BME280;11115;46.038;14.612;2023-05-15T13:25:17;97584.00;;;17.01;100.00
21902;BME280;11115;46.038;14.612;2023-05-15T13:28:04;97588.75;;;16.77;100.00
21902;BME280;11115;46.038;14.612;2023-05-15T13:30:34;97586.06;;;16.81;100.00
21902;BME280;11115;46.038;14.612;2023-05-15T13:33:09;97569.19;;;16.77;100.00
21902;BME280;11115;46.038;14.612;2023-05-15T13:35:46;97586.22;;;16.68;100.00
21902;BME280;11115;46.038;14.612;2023-05-15T13:38:18;97593.41;;;16.69;100.00
21902;BME280;11115;46.038;14.612;2023-05-15T13:40:48;97588.19;;;16.68;100.00
21902;BME280;11115;46.038;14.612;2023-05-15T13:43:28;97586.16;;;16.46;100.00